createdAt,value
2018-09-27T00:01:14.734Z,9.09
2018-09-27T00:03:42.343Z,9.09
2018-09-27T00:06:10.102Z,9.08
2018-09-27T00:08:38.100Z,9.05
2018-09-27T00:11:05.755Z,9.03
2018-09-27T00:13:33.430Z,9.01
2018-09-27T00:16:01.220Z,8.98
2018-09-27T00:18:28.789Z,8.92
2018-09-27T00:20:56.421Z,8.88
2018-09-27T00:23:23.962Z,8.83
2018-09-27T00:25:51.568Z,8.83
2018-09-27T00:28:19.158Z,8.87
2018-09-27T00:30:46.911Z,8.90
2018-09-27T00:33:14.419Z,8.88
2018-09-27T00:35:41.964Z,8.83
2018-09-27T00:38:09.735Z,8.78
2018-09-27T00:40:37.447Z,8.77
2018-09-27T00:43:05.074Z,8.74
2018-09-27T00:45:32.880Z,8.70
2018-09-27T00:48:00.474Z,8.66
2018-09-27T00:50:28.047Z,8.63
2018-09-27T00:52:55.624Z,8.58
2018-09-27T00:55:23.237Z,8.56
2018-09-27T00:57:50.832Z,8.51
2018-09-27T01:00:18.357Z,8.53
2018-09-27T01:02:45.935Z,8.53
2018-09-27T01:05:13.708Z,8.57
2018-09-27T01:07:41.347Z,8.56
2018-09-27T01:10:08.995Z,8.51
2018-09-27T01:12:36.574Z,8.48
2018-09-27T01:15:04.160Z,8.44
2018-09-27T01:17:31.846Z,8.42
2018-09-27T01:20:00.002Z,8.41
2018-09-27T01:22:27.553Z,8.38
2018-09-27T01:24:55.173Z,8.34
2018-09-27T01:27:22.804Z,8.33
2018-09-27T01:29:50.324Z,8.24
2018-09-27T01:32:17.874Z,8.20
2018-09-27T01:34:45.491Z,8.17
2018-09-27T01:37:13.103Z,8.08
2018-09-27T01:39:40.737Z,8.07
2018-09-27T01:42:08.321Z,8.03
2018-09-27T01:44:36.064Z,8.02
2018-09-27T01:47:03.741Z,7.99
2018-09-27T01:49:31.305Z,7.92
2018-09-27T01:51:59.161Z,7.95
2018-09-27T01:54:26.720Z,7.97
2018-09-27T01:56:54.896Z,7.95
2018-09-27T01:59:22.483Z,7.95
2018-09-27T02:01:50.175Z,7.94
2018-09-27T02:04:17.993Z,7.94
2018-09-27T02:06:45.727Z,7.86
2018-09-27T02:09:13.271Z,7.87
2018-09-27T02:11:40.947Z,7.83
2018-09-27T02:14:08.455Z,7.85
2018-09-27T02:16:36.245Z,7.79
2018-09-27T02:19:03.815Z,7.75
2018-09-27T02:21:31.376Z,7.74
2018-09-27T02:23:58.977Z,7.72
2018-09-27T02:26:26.510Z,7.74
2018-09-27T02:28:54.218Z,7.71
2018-09-27T02:31:21.781Z,7.73
2018-09-27T02:33:49.365Z,7.73
2018-09-27T02:36:16.961Z,7.70
2018-09-27T02:38:44.590Z,7.73
2018-09-27T02:41:12.170Z,7.77
2018-09-27T02:43:39.724Z,7.82
2018-09-27T02:46:07.508Z,7.76
2018-09-27T02:48:35.063Z,7.72
2018-09-27T02:51:02.621Z,7.75
2018-09-27T02:53:30.275Z,7.71
2018-09-27T02:55:57.783Z,7.67
2018-09-27T02:58:25.376Z,7.62
2018-09-27T03:00:52.922Z,7.58
2018-09-27T03:03:20.459Z,7.52
2018-09-27T03:05:48.074Z,7.55
2018-09-27T03:08:15.871Z,7.49
2018-09-27T03:10:43.483Z,7.49
2018-09-27T03:13:11.023Z,7.49
2018-09-27T03:15:38.619Z,7.47
2018-09-27T03:18:06.160Z,7.42
2018-09-27T03:20:33.765Z,7.43
2018-09-27T03:23:01.343Z,7.43
2018-09-27T03:25:28.886Z,7.46
2018-09-27T03:27:57.647Z,7.50
2018-09-27T03:30:25.220Z,7.48
2018-09-27T03:32:54.018Z,7.43
2018-09-27T03:35:21.597Z,7.47
2018-09-27T03:37:49.125Z,7.48
2018-09-27T03:40:16.741Z,7.49
2018-09-27T03:42:44.234Z,7.47
2018-09-27T03:45:11.776Z,7.47
2018-09-27T03:47:39.324Z,7.51
2018-09-27T03:50:07.028Z,7.50
2018-09-27T03:52:34.714Z,7.46
2018-09-27T03:55:02.302Z,7.43
2018-09-27T03:57:29.825Z,7.39
2018-09-27T03:59:57.407Z,7.33
2018-09-27T04:02:25.031Z,7.32
2018-09-27T04:04:52.549Z,7.26
2018-09-27T04:07:20.107Z,7.27
2018-09-27T04:09:47.731Z,7.23
2018-09-27T04:12:15.393Z,7.20
2018-09-27T04:14:42.972Z,7.17
2018-09-27T04:17:10.575Z,7.14
2018-09-27T04:19:38.159Z,7.13
2018-09-27T04:22:05.846Z,7.16
2018-09-27T04:24:33.613Z,7.24
2018-09-27T04:27:01.150Z,7.28
2018-09-27T04:29:28.755Z,7.18
2018-09-27T04:31:56.310Z,7.23
2018-09-27T04:34:24.097Z,7.59
2018-09-27T04:36:51.680Z,7.49
2018-09-27T04:39:19.255Z,7.38
2018-09-27T04:41:46.853Z,7.30
2018-09-27T04:44:14.442Z,7.29
2018-09-27T04:46:42.145Z,7.25
2018-09-27T04:49:10.430Z,7.21
2018-09-27T04:51:38.136Z,7.18
2018-09-27T04:54:05.689Z,7.17
2018-09-27T04:56:33.337Z,7.16
2018-09-27T04:59:01.098Z,7.11
2018-09-27T05:01:31.309Z,7.15
2018-09-27T05:03:58.973Z,7.11
2018-09-27T05:06:26.685Z,7.67
2018-09-27T05:08:54.259Z,7.29
2018-09-27T05:11:21.795Z,7.22
2018-09-27T05:13:49.535Z,7.23
2018-09-27T05:16:17.094Z,7.25
2018-09-27T05:18:44.870Z,7.23
2018-09-27T05:21:12.459Z,7.20
2018-09-27T05:23:40.141Z,7.68
2018-09-27T05:26:07.801Z,7.52
2018-09-27T05:28:35.418Z,7.51
2018-09-27T05:31:02.993Z,11.53
2018-09-27T05:33:30.710Z,10.06
2018-09-27T05:35:58.215Z,9.41
2018-09-27T05:38:25.844Z,9.03
2018-09-27T05:40:54.008Z,8.71
2018-09-27T05:43:21.646Z,8.53
2018-09-27T05:45:49.205Z,8.37
2018-09-27T05:48:17.032Z,8.34
2018-09-27T05:50:44.567Z,8.29
2018-09-27T05:53:12.176Z,8.24
2018-09-27T05:55:39.737Z,8.23
2018-09-27T05:58:07.451Z,8.28
2018-09-27T06:00:34.999Z,8.29
2018-09-27T06:03:02.688Z,8.37
2018-09-27T06:05:30.260Z,8.37
2018-09-27T06:07:57.893Z,8.46
2018-09-27T06:10:25.587Z,8.46
2018-09-27T06:12:53.140Z,8.58
2018-09-27T06:15:20.842Z,8.70
2018-09-27T06:17:48.385Z,8.78
2018-09-27T06:20:15.988Z,8.79
2018-09-27T06:22:43.523Z,8.88
2018-09-27T06:25:11.121Z,9.00
2018-09-27T06:27:38.734Z,9.10
2018-09-27T06:30:06.265Z,9.24
2018-09-27T06:32:33.863Z,9.38
2018-09-27T06:35:01.425Z,9.48
2018-09-27T06:37:29.011Z,9.51
2018-09-27T06:39:56.579Z,9.67
2018-09-27T06:42:24.131Z,9.78
2018-09-27T06:44:51.675Z,9.88
2018-09-27T06:47:19.552Z,9.93
2018-09-27T06:49:47.112Z,9.91
2018-09-27T06:52:14.683Z,10.00
2018-09-27T06:54:42.289Z,9.91
2018-09-27T06:57:09.989Z,10.01
2018-09-27T06:59:37.572Z,10.16
2018-09-27T07:02:05.138Z,10.38
2018-09-27T07:04:32.714Z,10.60
2018-09-27T07:07:00.736Z,10.77
2018-09-27T07:09:28.337Z,10.89
2018-09-27T07:11:56.043Z,11.06
2018-09-27T07:14:23.547Z,11.20
2018-09-27T07:16:51.079Z,11.40
2018-09-27T07:19:18.891Z,11.47
2018-09-27T07:21:46.449Z,11.64
2018-09-27T07:24:14.113Z,11.74
2018-09-27T07:26:41.907Z,11.90
2018-09-27T07:29:09.376Z,12.06
2018-09-27T07:31:36.966Z,12.21
2018-09-27T07:34:04.667Z,12.36
2018-09-27T07:36:32.368Z,12.58
2018-09-27T07:38:59.870Z,12.76
2018-09-27T07:41:27.475Z,12.99
2018-09-27T07:43:55.027Z,13.04
2018-09-27T07:46:22.604Z,13.09
2018-09-27T07:48:50.143Z,13.36
2018-09-27T07:51:17.915Z,13.54
2018-09-27T07:53:45.823Z,13.65
2018-09-27T07:56:13.383Z,13.77
2018-09-27T07:58:40.961Z,14.01
2018-09-27T08:01:08.653Z,14.24
2018-09-27T08:03:36.560Z,14.32
2018-09-27T08:06:04.159Z,14.43
2018-09-27T08:08:31.904Z,14.51
2018-09-27T08:10:59.502Z,14.59
2018-09-27T08:13:26.987Z,14.76
2018-09-27T08:15:54.719Z,14.99
2018-09-27T08:18:22.463Z,15.11
2018-09-27T08:20:50.204Z,15.20
2018-09-27T08:23:17.718Z,15.36
2018-09-27T08:25:45.512Z,15.51
2018-09-27T08:28:13.135Z,15.40
2018-09-27T08:30:41.158Z,15.44
2018-09-27T08:33:08.754Z,15.43
2018-09-27T08:35:36.275Z,15.56
2018-09-27T08:38:03.905Z,15.78
2018-09-27T08:40:31.631Z,15.88
2018-09-27T08:42:59.279Z,16.08
2018-09-27T08:45:27.155Z,16.13
2018-09-27T08:47:54.427Z,16.16
2018-09-27T08:50:22.080Z,16.38
2018-09-27T08:52:49.680Z,16.65
2018-09-27T08:55:17.283Z,16.76
2018-09-27T08:57:44.848Z,16.83
2018-09-27T09:00:12.399Z,17.06
2018-09-27T09:02:39.980Z,16.91
2018-09-27T09:05:07.219Z,17.07
2018-09-27T09:07:34.811Z,17.29
2018-09-27T09:10:02.367Z,17.38
2018-09-27T09:12:30.051Z,17.59
2018-09-27T09:14:57.622Z,17.74
2018-09-27T09:17:25.199Z,17.51
2018-09-27T09:19:52.740Z,17.81
2018-09-27T09:22:20.314Z,18.03
2018-09-27T09:24:47.873Z,18.11
2018-09-27T09:27:15.505Z,18.22
2018-09-27T09:29:43.350Z,18.40
2018-09-27T09:32:10.989Z,18.46
2018-09-27T09:34:38.519Z,18.68
2018-09-27T09:37:06.099Z,18.74
2018-09-27T09:39:34.213Z,18.90
2018-09-27T09:42:01.846Z,19.23
2018-09-27T09:44:29.350Z,19.33
2018-09-27T09:46:56.900Z,19.46
2018-09-27T09:49:24.453Z,19.62
2018-09-27T09:51:52.010Z,19.24
2018-09-27T09:54:19.561Z,19.23
2018-09-27T09:56:47.105Z,19.27
2018-09-27T09:59:14.680Z,19.47
2018-09-27T10:01:42.243Z,19.43
2018-09-27T10:04:09.747Z,19.49
2018-09-27T10:06:37.261Z,19.55
2018-09-27T10:09:05.991Z,19.72
2018-09-27T10:11:33.489Z,19.78
2018-09-27T10:14:01.281Z,19.88
2018-09-27T10:16:29.246Z,20.00
2018-09-27T10:18:56.796Z,20.08
2018-09-27T10:21:24.346Z,20.19
2018-09-27T10:23:51.939Z,20.24
2018-09-27T10:26:19.631Z,20.40
2018-09-27T10:28:47.237Z,20.70
2018-09-27T10:31:14.752Z,20.87
2018-09-27T10:33:42.291Z,21.04
2018-09-27T10:36:09.863Z,21.19
2018-09-27T10:38:37.475Z,21.21
2018-09-27T10:41:05.211Z,21.31
2018-09-27T10:43:32.766Z,21.22
2018-09-27T10:46:00.332Z,21.28
2018-09-27T10:48:27.926Z,21.30
2018-09-27T10:50:55.490Z,21.22
2018-09-27T10:53:23.150Z,21.41
2018-09-27T10:55:50.804Z,21.58
2018-09-27T10:58:18.364Z,21.58
2018-09-27T11:00:45.961Z,21.76
2018-09-27T11:03:13.692Z,22.01
2018-09-27T11:05:41.393Z,22.21
2018-09-27T11:08:08.968Z,22.39
2018-09-27T11:10:36.546Z,22.50
2018-09-27T11:13:04.143Z,22.60
2018-09-27T11:15:31.785Z,22.69
2018-09-27T11:17:59.339Z,22.81
2018-09-27T11:20:26.914Z,22.98
2018-09-27T11:22:54.482Z,23.16
2018-09-27T11:25:22.040Z,23.45
2018-09-27T11:27:49.653Z,23.79
2018-09-27T11:30:22.482Z,24.07
2018-09-27T11:32:50.143Z,23.95
2018-09-27T11:35:18.252Z,24.42
2018-09-27T11:37:45.877Z,24.79
2018-09-27T11:40:13.474Z,25.16
2018-09-27T11:42:41.068Z,25.01
2018-09-27T11:45:09.132Z,25.26
2018-09-27T11:47:36.760Z,26.17
2018-09-27T11:50:04.625Z,26.93
2018-09-27T11:52:32.225Z,27.33
2018-09-27T11:54:59.840Z,28.02
2018-09-27T11:57:28.514Z,28.55
2018-09-27T11:59:56.147Z,29.28
2018-09-27T12:02:23.723Z,29.93
2018-09-27T12:04:51.398Z,30.63
2018-09-27T12:07:19.209Z,31.04
2018-09-27T12:09:46.703Z,31.63
2018-09-27T12:12:14.804Z,32.50
2018-09-27T12:14:42.519Z,32.98
2018-09-27T12:17:10.135Z,33.91
2018-09-27T12:19:37.808Z,34.25
2018-09-27T12:22:05.331Z,34.28
2018-09-27T12:24:32.873Z,34.23
2018-09-27T12:27:00.394Z,34.83
2018-09-27T12:29:28.206Z,34.39
2018-09-27T12:31:55.897Z,34.51
2018-09-27T12:34:23.788Z,35.18
2018-09-27T12:36:51.352Z,34.82
2018-09-27T12:39:18.917Z,35.71
2018-09-27T12:41:46.807Z,36.49
2018-09-27T12:44:14.297Z,36.60
2018-09-27T12:46:41.843Z,36.41
2018-09-27T12:49:09.455Z,36.74
2018-09-27T12:51:37.038Z,35.81
2018-09-27T12:54:04.607Z,35.41
2018-09-27T12:56:32.214Z,35.52
2018-09-27T12:58:59.778Z,35.58
2018-09-27T13:01:27.357Z,36.55
2018-09-27T13:03:54.944Z,37.02
2018-09-27T13:06:22.485Z,37.69
2018-09-27T13:08:50.269Z,38.05
2018-09-27T13:11:17.885Z,38.39
2018-09-27T13:13:45.435Z,38.06
2018-09-27T13:16:13.203Z,38.08
2018-09-27T13:18:40.799Z,37.98
2018-09-27T13:21:08.519Z,38.09
2018-09-27T13:23:36.398Z,37.31
2018-09-27T13:26:04.206Z,37.09
2018-09-27T13:28:31.904Z,36.67
2018-09-27T13:30:59.439Z,37.23
2018-09-27T13:33:27.064Z,37.02
2018-09-27T13:35:54.734Z,37.74
2018-09-27T13:38:22.318Z,37.11
2018-09-27T13:40:49.875Z,36.37
2018-09-27T13:43:17.419Z,36.73
2018-09-27T13:45:45.139Z,36.76
2018-09-27T13:48:12.689Z,37.60
2018-09-27T13:50:41.134Z,37.54
2018-09-27T13:53:08.714Z,37.62
2018-09-27T13:55:36.242Z,36.98
2018-09-27T13:58:03.788Z,35.25
2018-09-27T14:00:31.342Z,36.18
2018-09-27T14:02:58.888Z,37.36
2018-09-27T14:05:26.442Z,35.93
2018-09-27T14:07:53.990Z,35.11
2018-09-27T14:10:22.439Z,34.92
2018-09-27T14:12:50.138Z,35.13
2018-09-27T14:15:17.709Z,35.29
2018-09-27T14:17:45.266Z,35.68
2018-09-27T14:20:12.844Z,34.28
2018-09-27T14:22:40.746Z,34.68
2018-09-27T14:25:08.300Z,33.48
2018-09-27T14:27:35.881Z,33.08
2018-09-27T14:30:03.486Z,33.05
2018-09-27T14:32:30.993Z,34.98
2018-09-27T14:34:59.151Z,35.72
2018-09-27T14:37:26.834Z,35.62
2018-09-27T14:39:54.440Z,34.58
2018-09-27T14:42:22.197Z,35.49
2018-09-27T14:44:49.898Z,34.96
2018-09-27T14:47:17.439Z,35.10
2018-09-27T14:49:44.942Z,35.18
2018-09-27T14:52:12.924Z,34.22
2018-09-27T14:54:40.520Z,34.92
2018-09-27T14:57:08.097Z,35.54
2018-09-27T14:59:35.812Z,34.94
2018-09-27T15:02:03.425Z,35.13
2018-09-27T15:04:32.554Z,35.49
2018-09-27T15:07:00.104Z,34.63
2018-09-27T15:09:27.933Z,35.02
2018-09-27T15:11:55.385Z,34.05
2018-09-27T15:14:23.128Z,33.82
2018-09-27T15:16:50.702Z,34.65
2018-09-27T15:19:18.256Z,34.70
2018-09-27T15:21:45.941Z,35.20
2018-09-27T15:24:13.444Z,34.58
2018-09-27T15:26:40.970Z,33.82
2018-09-27T15:29:08.735Z,35.34
2018-09-27T15:31:36.285Z,35.85
2018-09-27T15:34:03.855Z,36.07
2018-09-27T15:36:31.461Z,35.35
2018-09-27T15:38:58.977Z,34.50
2018-09-27T15:41:26.582Z,33.65
2018-09-27T15:43:54.284Z,33.53
2018-09-27T15:46:21.893Z,33.77
2018-09-27T15:48:49.462Z,33.70
2018-09-27T15:51:17.084Z,34.24
2018-09-27T15:53:45.508Z,34.40
2018-09-27T15:56:13.150Z,34.61
2018-09-27T15:58:40.973Z,34.50
2018-09-27T16:01:08.536Z,33.79
2018-09-27T16:03:36.083Z,34.55
2018-09-27T16:06:03.672Z,34.69
2018-09-27T16:08:31.229Z,33.33
2018-09-27T16:10:58.799Z,33.96
2018-09-27T16:13:26.369Z,34.41
2018-09-27T16:15:54.295Z,34.23
2018-09-27T16:18:21.903Z,33.67
2018-09-27T16:20:49.487Z,34.07
2018-09-27T16:23:17.046Z,33.22
2018-09-27T16:25:44.599Z,33.37
2018-09-27T16:28:12.131Z,33.39
2018-09-27T16:30:40.226Z,32.46
2018-09-27T16:33:07.786Z,32.28
2018-09-27T16:35:35.367Z,31.33
2018-09-27T16:38:02.954Z,29.42
2018-09-27T16:40:30.794Z,27.94
2018-09-27T16:42:59.051Z,27.10
2018-09-27T16:45:26.622Z,26.20
2018-09-27T16:47:54.286Z,25.60
2018-09-27T16:50:21.819Z,25.26
2018-09-27T16:52:49.504Z,24.62
2018-09-27T16:55:17.341Z,24.06
2018-09-27T16:57:45.102Z,23.62
2018-09-27T17:00:12.732Z,23.20
2018-09-27T17:02:40.360Z,22.83
2018-09-27T17:05:08.031Z,22.64
2018-09-27T17:07:35.662Z,22.44
2018-09-27T17:10:03.235Z,22.18
2018-09-27T17:12:30.847Z,21.95
2018-09-27T17:14:58.406Z,21.73
2018-09-27T17:17:25.950Z,21.57
2018-09-27T17:19:53.466Z,21.60
2018-09-27T17:22:21.009Z,21.69
2018-09-27T17:24:48.578Z,21.58
2018-09-27T17:27:16.343Z,21.61
2018-09-27T17:29:44.019Z,21.63
2018-09-27T17:32:11.768Z,21.47
2018-09-27T17:34:39.374Z,21.13
2018-09-27T17:37:06.883Z,20.85
2018-09-27T17:39:34.477Z,20.55
2018-09-27T17:42:02.108Z,20.24
2018-09-27T17:44:29.639Z,19.96
2018-09-27T17:46:57.250Z,19.70
2018-09-27T17:49:24.788Z,19.43
2018-09-27T17:51:52.460Z,19.30
2018-09-27T17:54:20.038Z,19.09
2018-09-27T17:56:47.596Z,18.93
2018-09-27T17:59:15.221Z,19.20
2018-09-27T18:01:42.851Z,19.55
2018-09-27T18:04:10.331Z,19.91
2018-09-27T18:06:38.007Z,20.23
2018-09-27T18:09:08.058Z,20.21
2018-09-27T18:11:36.016Z,20.09
2018-09-27T18:14:03.646Z,19.75
2018-09-27T18:16:31.570Z,19.35
2018-09-27T18:18:59.440Z,18.98
2018-09-27T18:21:27.010Z,18.74
2018-09-27T18:23:55.250Z,18.50
2018-09-27T18:26:22.801Z,19.06
2018-09-27T18:28:50.309Z,19.03
2018-09-27T18:31:18.091Z,18.75
2018-09-27T18:33:45.590Z,18.42
2018-09-27T18:36:14.579Z,18.59
2018-09-27T18:38:42.176Z,19.07
2018-09-27T18:41:09.735Z,19.40
2018-09-27T18:43:37.709Z,19.61
2018-09-27T18:46:05.309Z,19.86
2018-09-27T18:48:32.856Z,19.36
2018-09-27T18:51:00.398Z,19.60
2018-09-27T18:53:28.093Z,19.79
2018-09-27T18:55:55.653Z,19.28
2018-09-27T18:58:23.207Z,19.13
2018-09-27T19:00:50.873Z,19.34
2018-09-27T19:03:18.564Z,19.37
2018-09-27T19:05:46.117Z,19.64
2018-09-27T19:08:13.682Z,19.56
2018-09-27T19:10:41.336Z,19.81
2018-09-27T19:13:08.922Z,19.80
2018-09-27T19:15:36.638Z,19.95
2018-09-27T19:18:04.167Z,19.78
2018-09-27T19:20:31.815Z,19.45
2018-09-27T19:22:59.428Z,19.50
2018-09-27T19:25:27.076Z,19.57
2018-09-27T19:27:54.721Z,19.34
2018-09-27T19:30:22.506Z,19.21
2018-09-27T19:32:50.630Z,19.46
2018-09-27T19:35:18.380Z,19.45
2018-09-27T19:37:45.946Z,19.01
2018-09-27T19:40:13.729Z,18.76
2018-09-27T19:42:41.530Z,19.16
2018-09-27T19:45:09.407Z,18.86
2018-09-27T19:47:37.133Z,19.09
2018-09-27T19:50:05.135Z,18.46
2018-09-27T19:52:32.894Z,18.23
2018-09-27T19:55:00.649Z,18.40
2018-09-27T19:57:28.351Z,18.33
2018-09-27T19:59:56.095Z,18.39
2018-09-27T20:02:23.601Z,17.93
2018-09-27T20:04:51.143Z,18.29
2018-09-27T20:07:19.104Z,18.84
2018-09-27T20:09:46.689Z,18.63
2018-09-27T20:12:15.929Z,18.17
2018-09-27T20:14:43.526Z,18.27
2018-09-27T20:17:11.266Z,18.37
2018-09-27T20:19:38.849Z,17.99
2018-09-27T20:22:08.454Z,18.24
2018-09-27T20:24:36.290Z,18.41
2018-09-27T20:27:03.974Z,18.31
2018-09-27T20:29:31.763Z,18.69
2018-09-27T20:31:59.419Z,18.06
2018-09-27T20:34:26.980Z,17.39
2018-09-27T20:36:54.576Z,16.67
2018-09-27T20:39:22.157Z,16.09
2018-09-27T20:41:49.824Z,15.81
2018-09-27T20:44:17.420Z,15.55
2018-09-27T20:46:45.132Z,15.26
2018-09-27T20:49:12.826Z,15.08
2018-09-27T20:51:40.580Z,14.88
2018-09-27T20:54:08.160Z,14.73
2018-09-27T20:56:35.907Z,16.03
2018-09-27T20:59:03.739Z,17.50
2018-09-27T21:01:31.328Z,16.54
2018-09-27T21:03:58.933Z,15.85
2018-09-27T21:06:26.530Z,15.45
2018-09-27T21:08:54.111Z,15.09
2018-09-27T21:11:21.727Z,14.88
2018-09-27T21:13:49.798Z,14.62
2018-09-27T21:16:17.346Z,14.32
2018-09-27T21:18:44.924Z,14.20
2018-09-27T21:21:13.449Z,14.09
2018-09-27T21:23:41.018Z,14.63
2018-09-27T21:26:08.551Z,14.48
2018-09-27T21:28:36.100Z,14.30
2018-09-27T21:31:03.673Z,14.09
2018-09-27T21:33:31.643Z,13.93
2018-09-27T21:35:59.251Z,13.80
2018-09-27T21:38:26.771Z,13.67
2018-09-27T21:40:54.451Z,13.58
2018-09-27T21:43:22.092Z,13.52
2018-09-27T21:45:49.657Z,13.44
2018-09-27T21:48:17.201Z,13.39
2018-09-27T21:50:44.741Z,13.36
2018-09-27T21:53:12.285Z,13.30
2018-09-27T21:55:39.835Z,13.18
2018-09-27T21:58:07.486Z,13.12
2018-09-27T22:00:35.031Z,13.07
2018-09-27T22:03:02.721Z,13.00
2018-09-27T22:05:30.279Z,12.99
2018-09-27T22:07:57.786Z,12.90
2018-09-27T22:10:25.584Z,12.88
2018-09-27T22:12:53.169Z,12.85
2018-09-27T22:15:20.718Z,12.75
2018-09-27T22:17:48.368Z,12.77
2018-09-27T22:20:16.109Z,12.76
2018-09-27T22:22:43.997Z,12.68
2018-09-27T22:25:11.530Z,12.74
2018-09-27T22:27:39.170Z,12.68
2018-09-27T22:30:07.054Z,12.66
2018-09-27T22:32:34.714Z,12.58
2018-09-27T22:35:02.250Z,12.51
2018-09-27T22:37:29.766Z,12.45
2018-09-27T22:39:57.402Z,12.40
2018-09-27T22:42:25.095Z,12.35
2018-09-27T22:44:52.622Z,12.29
2018-09-27T22:47:20.318Z,12.34
2018-09-27T22:49:47.871Z,12.29
2018-09-27T22:52:15.471Z,12.26
2018-09-27T22:54:43.064Z,12.23
2018-09-27T22:57:10.639Z,12.19
2018-09-27T22:59:38.379Z,12.17
2018-09-27T23:02:05.901Z,12.11
2018-09-27T23:04:33.555Z,12.08
2018-09-27T23:07:01.179Z,12.01
2018-09-27T23:09:29.010Z,11.98
2018-09-27T23:11:56.532Z,11.95
2018-09-27T23:14:24.091Z,11.87
2018-09-27T23:16:51.645Z,11.89
2018-09-27T23:19:19.209Z,11.89
2018-09-27T23:21:46.865Z,11.86
2018-09-27T23:24:14.940Z,11.86
2018-09-27T23:26:42.480Z,11.85
2018-09-27T23:29:10.012Z,11.81
2018-09-27T23:31:37.871Z,11.80
2018-09-27T23:34:05.561Z,11.74
2018-09-27T23:36:33.197Z,11.69
2018-09-27T23:39:01.631Z,11.73
2018-09-27T23:41:29.167Z,11.77
2018-09-27T23:43:56.742Z,11.76
2018-09-27T23:46:25.119Z,11.66
2018-09-27T23:48:52.671Z,11.63
2018-09-27T23:51:20.408Z,11.63
2018-09-27T23:53:48.029Z,11.61
2018-09-27T23:56:15.586Z,11.58
2018-09-27T23:58:43.139Z,11.57
